Time;durP1;ratioP1;P1;durP2;ratioP2;P2;SDS_P1;SDS_P2;PMS_P1;PMS_P2;Temp;Humidity;BMP_temperature;BMP_pressure;BME280_temperature;BME280_humidity;BME280_pressure;Samples;Min_cycle;Max_cycle;Signal;HPM_P1;HPM_P2
2021/11/06 00:01:22;;;;;;;3.60;2.70;;;;;;;7.66;88.01;96461.26;1759309;81;21062;-67
2021/11/06 00:03:49;;;;;;;3.87;3.00;;;;;;;7.72;87.73;96465.67;1759235;81;21086;-67
2021/11/06 00:06:15;;;;;;;6.40;3.63;;;;;;;7.69;87.55;96451.20;1759160;81;20999;-67
2021/11/06 00:08:42;;;;;;;6.70;2.97;;;;;;;7.76;87.71;96449.94;1759470;81;21042;-67
2021/11/06 00:11:09;;;;;;;6.63;4.20;;;;;;;7.75;87.53;96447.29;1759416;81;21086;-67
2021/11/06 00:13:36;;;;;;;7.00;4.43;;;;;;;7.83;87.48;96446.02;1759200;81;21077;-67
2021/11/06 00:16:03;;;;;;;5.20;3.40;;;;;;;7.89;87.48;96449.58;1759279;81;21058;-67
2021/11/06 00:18:29;;;;;;;6.53;4.20;;;;;;;7.83;86.72;96448.65;1759846;81;21022;-67
2021/11/06 00:20:56;;;;;;;4.70;3.13;;;;;;;7.79;86.84;96461.77;1759167;81;21039;-67
2021/11/06 00:23:23;;;;;;;5.30;2.80;;;;;;;7.83;87.11;96462.66;1759249;81;21049;-67
2021/11/06 00:25:49;;;;;;;5.50;1.67;;;;;;;7.91;87.17;96465.33;1759218;81;21027;-67
2021/11/06 00:28:16;;;;;;;4.10;1.53;;;;;;;7.94;87.08;96471.94;1759127;81;21030;-67
2021/11/06 00:30:43;;;;;;;1.43;0.80;;;;;;;7.94;87.01;96474.13;1759228;81;21038;-67
2021/11/06 00:33:10;;;;;;;2.13;1.03;;;;;;;8.01;86.97;96467.13;1759203;81;21021;-67
2021/11/06 00:35:37;;;;;;;1.77;1.10;;;;;;;8.00;86.77;96471.52;1759290;81;21658;-67
2021/11/06 00:38:04;;;;;;;2.50;1.23;;;;;;;8.02;86.68;96473.72;1759589;81;20990;-67
2021/11/06 00:40:31;;;;;;;2.30;0.90;;;;;;;7.96;86.51;96472.39;1759145;81;21037;-67
2021/11/06 00:42:57;;;;;;;4.27;1.00;;;;;;;7.87;85.58;96474.95;1759436;81;21035;-67
2021/11/06 00:45:24;;;;;;;1.97;0.83;;;;;;;7.84;85.53;96476.66;1759217;81;21142;-68
2021/11/06 00:47:50;;;;;;;1.87;1.27;;;;;;;7.84;86.02;96479.30;1755219;81;21115;-67
2021/11/06 00:50:17;;;;;;;3.53;1.80;;;;;;;7.78;86.49;96478.83;1752172;81;21101;-67
2021/11/06 00:52:47;;;;;;;5.33;2.47;;;;;;;7.70;86.81;96468.27;1779545;81;21600;-67
2021/11/06 00:55:15;;;;;;;5.20;2.50;;;;;;;7.70;87.22;96480.09;1779782;81;21078;-67
2021/11/06 00:57:43;;;;;;;2.50;2.07;;;;;;;7.70;86.91;96482.72;1779809;81;21083;-67
2021/11/06 01:00:12;;;;;;;2.60;1.57;;;;;;;7.74;87.31;96487.58;1780096;81;21429;-67
2021/11/06 01:02:40;;;;;;;3.17;1.83;;;;;;;7.73;87.21;96489.30;1779946;80;21082;-67
2021/11/06 01:05:09;;;;;;;3.13;2.10;;;;;;;7.78;87.36;96486.27;1779821;81;21042;-67
2021/11/06 01:07:35;;;;;;;3.10;2.10;;;;;;;7.86;87.27;96483.72;1779869;81;21126;-67
2021/11/06 01:10:06;;;;;;;4.40;2.07;;;;;;;7.94;87.21;96489.02;1779659;81;21490;-67
2021/11/06 01:12:33;;;;;;;4.60;2.30;;;;;;;7.95;86.83;96485.51;1779888;81;21099;-67
2021/11/06 01:15:00;;;;;;;2.57;1.80;;;;;;;7.91;86.38;96485.94;1779562;81;21110;-67
2021/11/06 01:17:27;;;;;;;3.60;1.80;;;;;;;7.90;86.40;96492.05;1780055;81;21030;-67
2021/11/06 01:19:53;;;;;;;4.73;1.90;;;;;;;7.90;86.30;96485.92;1780158;80;20995;-67
2021/11/06 01:22:20;;;;;;;3.00;1.60;;;;;;;7.92;86.29;96489.44;1779838;81;21094;-67
2021/11/06 01:24:46;;;;;;;4.57;1.90;;;;;;;7.89;85.97;96488.98;1779929;81;21094;-67
2021/11/06 01:27:13;;;;;;;2.67;2.07;;;;;;;7.83;85.61;96494.63;1779773;81;21035;-67
2021/11/06 01:29:40;;;;;;;3.53;1.70;;;;;;;7.79;85.49;96494.61;1780105;81;21015;-67
2021/11/06 01:32:08;;;;;;;2.33;1.70;;;;;;;7.78;85.78;96487.58;1780006;80;20971;-67
2021/11/06 01:34:36;;;;;;;2.07;1.70;;;;;;;7.83;86.25;96484.98;1779949;80;21536;-67
2021/11/06 01:37:04;;;;;;;4.00;1.60;;;;;;;7.94;86.55;96490.34;1780015;80;20991;-67
2021/11/06 01:39:31;;;;;;;3.27;1.40;;;;;;;7.99;86.27;96492.11;1779938;81;21023;-67
2021/11/06 01:41:58;;;;;;;1.80;1.23;;;;;;;8.00;86.07;96498.24;1779585;81;21125;-67
2021/11/06 01:44:25;;;;;;;1.47;1.30;;;;;;;8.01;85.98;96505.24;1780107;81;21042;-67
2021/11/06 01:46:52;;;;;;;3.50;1.20;;;;;;;8.05;86.09;96509.66;1779791;81;20995;-67
2021/11/06 01:49:20;;;;;;;2.07;1.50;;;;;;;8.08;85.71;96510.98;1764360;81;21057;-67
2021/11/06 01:51:50;;;;;;;2.63;1.70;;;;;;;7.99;85.14;96504.38;1763908;81;21042;-67
2021/11/06 01:54:17;;;;;;;16.77;5.80;;;;;;;7.94;85.45;96506.97;1763885;81;21054;-67
2021/11/06 01:56:44;;;;;;;4.40;1.40;;;;;;;7.96;85.75;96503.02;1763827;81;21145;-67
2021/11/06 01:59:10;;;;;;;1.50;0.93;;;;;;;7.97;85.65;96492.98;1764064;81;21021;-67
2021/11/06 02:01:38;;;;;;;4.67;1.10;;;;;;;8.00;85.65;96491.67;1743451;81;21552;-67
2021/11/06 02:04:05;;;;;;;1.63;1.20;;;;;;;8.02;85.70;96486.00;1743426;81;21018;-67
2021/11/06 02:06:32;;;;;;;1.80;1.07;;;;;;;8.00;85.09;96499.11;1764097;81;21019;-67
2021/11/06 02:08:59;;;;;;;3.27;0.90;;;;;;;7.95;84.97;96490.77;1764051;81;21102;-67
2021/11/06 02:11:26;;;;;;;1.20;0.90;;;;;;;7.92;85.02;96502.14;1764083;81;21007;-67
2021/11/06 02:13:53;;;;;;;3.17;0.70;;;;;;;7.90;85.24;96499.93;1764163;81;21472;-67
2021/11/06 02:16:20;;;;;;;0.83;0.60;;;;;;;7.88;85.35;96507.36;1744996;81;21461;-67
2021/11/06 02:18:48;;;;;;;1.17;0.67;;;;;;;7.91;85.35;96520.51;1764049;81;21098;-67
2021/11/06 02:21:15;;;;;;;3.03;1.00;;;;;;;7.94;85.80;96518.80;1764065;81;21015;-67
2021/11/06 02:23:44;;;;;;;1.93;1.30;;;;;;;7.92;85.38;96515.72;1763947;81;21083;-67
2021/11/06 02:26:13;;;;;;;4.97;1.87;;;;;;;7.88;85.67;96509.55;1743587;81;20991;-67
2021/11/06 02:28:40;;;;;;;2.10;1.23;;;;;;;7.92;85.93;96514.41;1764129;81;21030;-67
2021/11/06 02:31:08;;;;;;;3.60;1.60;;;;;;;7.92;85.58;96509.15;1764239;81;20991;-67
2021/11/06 02:33:35;;;;;;;3.23;1.37;;;;;;;7.83;85.29;96505.13;1763788;81;21011;-68
2021/11/06 02:36:01;;;;;;;1.77;1.30;;;;;;;7.79;85.44;96510.82;1764343;81;20959;-68
2021/11/06 02:38:28;;;;;;;4.93;0.83;;;;;;;7.77;85.56;96515.17;1763904;81;21573;-67
2021/11/06 02:40:55;;;;;;;0.70;0.70;;;;;;;7.74;85.44;96512.53;1764074;81;21062;-67
2021/11/06 02:43:22;;;;;;;1.17;0.80;;;;;;;7.65;85.09;96513.77;1764112;81;21058;-67
2021/11/06 02:45:49;;;;;;;2.60;0.80;;;;;;;7.63;85.73;96526.00;1764274;81;21035;-68
2021/11/06 02:48:15;;;;;;;7.30;1.37;;;;;;;7.58;85.55;96525.55;1774969;80;21074;-68
2021/11/06 02:50:42;;;;;;;3.77;1.83;;;;;;;7.56;85.60;96527.28;1786808;80;21022;-67
2021/11/06 02:53:09;;;;;;;3.77;1.87;;;;;;;7.43;85.01;96529.34;1786811;80;21106;-67
2021/11/06 02:55:36;;;;;;;3.83;1.90;;;;;;;7.32;84.79;96537.56;1786791;80;20983;-67
2021/11/06 02:58:03;;;;;;;2.60;1.30;;;;;;;7.14;84.66;96540.46;1786824;80;21031;-67
2021/11/06 03:00:32;;;;;;;4.70;1.00;;;;;;;7.11;85.25;96538.25;1754078;80;21023;-67
2021/11/06 03:03:00;;;;;;;3.27;0.80;;;;;;;7.11;85.68;96537.81;1787147;80;21074;-68
2021/11/06 03:05:27;;;;;;;1.70;0.90;;;;;;;7.13;85.81;96537.81;1787052;80;21015;-68
2021/11/06 03:07:54;;;;;;;5.03;0.83;;;;;;;7.10;85.54;96543.03;1787019;80;21034;-68
2021/11/06 03:10:20;;;;;;;2.10;0.60;;;;;;;7.05;85.26;96545.61;1786990;80;21018;-67
2021/11/06 03:12:49;;;;;;;2.73;0.80;;;;;;;6.99;84.95;96531.56;1786661;80;21035;-68
2021/11/06 03:15:16;;;;;;;2.03;0.60;;;;;;;6.93;84.81;96541.13;1787572;80;20987;-68
2021/11/06 03:17:43;;;;;;;1.07;0.67;;;;;;;6.79;84.18;96547.95;1787010;80;21082;-68
2021/11/06 03:20:12;;;;;;;2.40;0.70;;;;;;;6.68;84.25;96547.84;1787087;80;21019;-68
2021/11/06 03:22:39;;;;;;;3.60;0.80;;;;;;;6.63;84.59;96558.70;1787360;80;21448;-67
2021/11/06 03:25:07;;;;;;;0.83;0.60;;;;;;;6.56;84.28;96576.97;1787364;80;20999;-67
2021/11/06 03:27:34;;;;;;;1.30;0.77;;;;;;;6.47;83.94;96581.65;1787046;80;21060;-67
2021/11/06 03:30:03;;;;;;;3.47;0.80;;;;;;;6.39;84.07;96572.80;1786745;80;21161;-67
2021/11/06 03:32:29;;;;;;;1.50;0.60;;;;;;;6.28;84.14;96569.61;1787116;80;20975;-67
2021/11/06 03:34:56;;;;;;;2.30;0.93;;;;;;;6.21;84.13;96575.62;1786781;80;21615;-67
2021/11/06 03:37:23;;;;;;;3.73;1.00;;;;;;;6.16;84.56;96583.85;1786947;80;21007;-67
2021/11/06 03:39:49;;;;;;;0.60;0.53;;;;;;;6.13;84.65;96590.36;1786822;80;21075;-67
2021/11/06 03:42:16;;;;;;;2.70;0.90;;;;;;;6.13;84.90;96597.35;1786566;80;21046;-67
2021/11/06 03:44:43;;;;;;;2.80;0.60;;;;;;;6.12;84.94;96587.70;1786755;80;20975;-67
2021/11/06 03:47:09;;;;;;;0.93;0.60;;;;;;;6.11;84.81;96583.34;1786791;80;21551;-67
2021/11/06 03:49:36;;;;;;;1.50;0.77;;;;;;;6.10;84.84;96574.61;1794311;80;21023;-67
2021/11/06 03:52:04;;;;;;;1.97;0.87;;;;;;;6.02;85.01;96577.12;1795288;80;20999;-67
2021/11/06 03:54:30;;;;;;;3.53;1.30;;;;;;;5.91;84.97;96576.45;1795363;80;21094;-67
2021/11/06 03:56:57;;;;;;;1.77;1.17;;;;;;;5.92;85.27;96584.35;1795585;80;21006;-67
2021/11/06 03:59:23;;;;;;;1.37;0.87;;;;;;;5.95;85.45;96587.48;1795155;80;21600;-67
2021/11/06 04:01:50;;;;;;;4.27;1.20;;;;;;;5.91;85.41;96585.19;1795578;80;20947;-67
2021/11/06 04:04:17;;;;;;;1.53;1.20;;;;;;;5.92;85.62;96589.99;1795110;80;21090;-67
2021/11/06 04:06:43;;;;;;;1.67;0.90;;;;;;;5.97;85.87;96586.65;1795323;80;20982;-67
2021/11/06 04:09:10;;;;;;;1.73;0.80;;;;;;;6.04;86.23;96594.14;1795123;80;21011;-67
2021/11/06 04:11:37;;;;;;;1.20;0.90;;;;;;;5.98;85.92;96596.69;1795235;80;21015;-67
2021/11/06 04:14:03;;;;;;;1.50;1.03;;;;;;;6.01;86.09;96589.74;1794972;80;21090;-67
2021/11/06 04:16:30;;;;;;;2.20;1.20;;;;;;;6.03;86.10;96590.66;1795499;80;20947;-67
2021/11/06 04:18:57;;;;;;;1.53;1.00;;;;;;;6.04;86.12;96591.09;1795019;80;21081;-67
2021/11/06 04:21:24;;;;;;;0.93;0.90;;;;;;;6.04;86.38;96580.61;1795225;80;21576;-67
2021/11/06 04:23:51;;;;;;;1.20;0.90;;;;;;;6.10;86.46;96584.18;1763991;80;21102;-67
2021/11/06 04:26:18;;;;;;;1.10;0.90;;;;;;;6.18;86.41;96589.13;1795046;80;20998;-67
2021/11/06 04:28:45;;;;;;;2.13;0.80;;;;;;;6.20;86.57;96599.17;1795398;80;21027;-67
2021/11/06 04:31:11;;;;;;;3.17;0.97;;;;;;;6.20;86.10;96599.17;1795229;80;21022;-67
2021/11/06 04:33:38;;;;;;;1.53;0.93;;;;;;;6.20;86.72;96608.34;1795190;80;21077;-67
2021/11/06 04:36:07;;;;;;;3.37;1.10;;;;;;;6.20;86.39;96610.97;1795198;80;21087;-67
2021/11/06 04:38:33;;;;;;;1.63;1.17;;;;;;;6.25;86.58;96601.47;1795913;80;20955;-67
2021/11/06 04:40:59;;;;;;;3.50;1.13;;;;;;;6.30;86.68;96598.48;1794994;80;21042;-67
2021/11/06 04:43:26;;;;;;;1.13;0.97;;;;;;;6.33;86.42;96595.89;1795253;80;21493;-67
2021/11/06 04:45:52;;;;;;;4.70;0.90;;;;;;;6.37;86.34;96596.37;1795109;80;21062;-67
2021/11/06 04:48:19;;;;;;;1.50;0.80;;;;;;;6.27;85.80;96599.31;1795136;80;21022;-67
2021/11/06 04:50:46;;;;;;;2.13;1.17;;;;;;;6.27;86.13;96604.56;1795283;80;21091;-67
2021/11/06 04:53:13;;;;;;;1.40;0.90;;;;;;;6.23;85.96;96598.81;1795513;80;20979;-67
2021/11/06 04:55:39;;;;;;;2.13;0.90;;;;;;;6.20;86.05;96600.08;1795310;80;21106;-67
2021/11/06 04:58:06;;;;;;;3.00;1.23;;;;;;;6.15;85.74;96599.53;1795374;80;21026;-67
2021/11/06 05:00:33;;;;;;;2.50;1.63;;;;;;;6.09;86.11;96599.46;1795288;80;21110;-67
2021/11/06 05:03:00;;;;;;;2.17;1.00;;;;;;;6.17;86.80;96616.17;1795382;80;20979;-67
2021/11/06 05:05:27;;;;;;;2.37;1.10;;;;;;;6.24;86.77;96612.79;1795253;80;21102;-67
2021/11/06 05:07:53;;;;;;;3.03;1.27;;;;;;;6.25;86.52;96614.57;1795516;80;21027;-67
2021/11/06 05:10:20;;;;;;;4.13;2.03;;;;;;;6.26;86.42;96610.64;1795318;80;21010;-67
2021/11/06 05:12:49;;;;;;;4.77;1.37;;;;;;;6.23;86.14;96623.70;1795439;80;21061;-67
2021/11/06 05:15:16;;;;;;;2.67;1.03;;;;;;;6.23;86.15;96628.07;1795518;80;21074;-67
2021/11/06 05:17:43;;;;;;;1.87;0.87;;;;;;;6.21;85.82;96625.85;1795776;80;21437;-67
2021/11/06 05:20:10;;;;;;;3.77;1.30;;;;;;;6.11;85.45;96628.76;1795285;80;21021;-67
2021/11/06 05:22:38;;;;;;;1.50;1.00;;;;;;;5.96;85.23;96632.02;1795583;80;20994;-67
2021/11/06 05:25:07;;;;;;;4.23;2.10;;;;;;;5.96;86.00;96643.80;1795517;80;21007;-67
2021/11/06 05:27:35;;;;;;;4.60;1.87;;;;;;;6.01;86.42;96655.67;1795309;80;20943;-67
2021/11/06 05:30:06;;;;;;;2.83;0.93;;;;;;;5.99;86.21;96656.07;1795635;80;21050;-67
2021/11/06 05:32:34;;;;;;;8.77;3.40;;;;;;;5.84;85.49;96655.35;1795010;80;21122;-67
2021/11/06 05:35:02;;;;;;;2.53;1.10;;;;;;;5.83;85.87;96661.45;1795497;80;21026;-67
2021/11/06 05:37:30;;;;;;;5.73;0.90;;;;;;;5.79;85.80;96666.18;1795568;80;21113;-67
2021/11/06 05:39:57;;;;;;;1.70;1.00;;;;;;;5.75;85.95;96670.50;1795272;80;21031;-67
2021/11/06 05:42:24;;;;;;;0.93;0.80;;;;;;;5.75;86.21;96678.35;1795044;80;20990;-67
2021/11/06 05:44:51;;;;;;;4.67;1.13;;;;;;;5.68;85.76;96674.29;1795133;80;21062;-67
2021/11/06 05:47:17;;;;;;;2.83;0.70;;;;;;;5.58;85.66;96675.42;1795203;80;21519;-67
2021/11/06 05:49:44;;;;;;;1.27;1.00;;;;;;;5.56;85.82;96675.81;1789057;80;21019;-67
2021/11/06 05:52:10;;;;;;;7.20;2.97;;;;;;;5.54;85.96;96673.59;1786811;80;21023;-67
2021/11/06 05:54:38;;;;;;;5.73;2.30;;;;;;;5.55;86.27;96666.21;1753014;80;21087;-67
2021/11/06 05:57:05;;;;;;;8.27;3.30;;;;;;;5.58;86.25;96674.11;1786723;80;21017;-67
2021/11/06 05:59:32;;;;;;;1.70;0.80;;;;;;;5.49;85.56;96675.68;1786895;80;21090;-67
2021/11/06 06:01:59;;;;;;;1.90;0.97;;;;;;;5.30;85.23;96678.39;1786903;80;21010;-67
2021/11/06 06:04:25;;;;;;;5.00;1.10;;;;;;;5.24;85.90;96683.48;1786843;80;21102;-67
2021/11/06 06:06:52;;;;;;;1.37;0.70;;;;;;;5.17;86.51;96684.69;1753094;80;21078;-68
2021/11/06 06:09:19;;;;;;;2.73;0.77;;;;;;;5.12;86.22;96682.41;1786838;80;21580;-67
2021/11/06 06:11:46;;;;;;;2.37;0.83;;;;;;;5.20;86.87;96689.10;1786800;80;21019;-67
2021/11/06 06:14:13;;;;;;;3.30;1.40;;;;;;;5.32;87.16;96695.02;1787032;80;21014;-67
2021/11/06 06:16:40;;;;;;;1.70;0.90;;;;;;;5.28;86.34;96695.80;1786851;80;21066;-67
2021/11/06 06:19:07;;;;;;;2.57;0.90;;;;;;;5.28;86.14;96699.28;1787067;80;21041;-68
2021/11/06 06:21:33;;;;;;;1.23;0.87;;;;;;;5.26;86.09;96695.75;1786972;80;21026;-67
2021/11/06 06:24:00;;;;;;;2.00;0.43;;;;;;;5.19;85.39;96704.33;1786919;80;21090;-67
2021/11/06 06:26:27;;;;;;;2.90;2.63;;;;;;;5.06;85.23;96711.48;1786739;80;21525;-67
2021/11/06 06:28:54;;;;;;;2.93;2.50;;;;;;;4.98;85.50;96723.09;1786731;80;21066;-67
2021/11/06 06:31:21;;;;;;;3.80;2.83;;;;;;;5.03;85.81;96733.22;1786892;80;21034;-67
2021/11/06 06:33:47;;;;;;;0.93;0.50;;;;;;;4.97;85.66;96730.48;1786768;80;21082;-67
2021/11/06 06:36:14;;;;;;;0.77;0.30;;;;;;;4.97;86.10;96728.75;1786874;80;21023;-67
2021/11/06 06:38:41;;;;;;;1.13;0.40;;;;;;;4.94;86.31;96732.61;1787301;80;21060;-67
2021/11/06 06:41:07;;;;;;;1.20;0.50;;;;;;;5.08;86.42;96732.89;1786810;80;21039;-67
2021/11/06 06:43:34;;;;;;;0.33;0.33;;;;;;;5.25;87.24;96731.94;1786966;80;21049;-67
2021/11/06 06:46:01;;;;;;;0.80;0.57;;;;;;;5.34;87.19;96729.52;1786913;80;21094;-67
2021/11/06 06:48:28;;;;;;;4.27;3.37;;;;;;;5.42;87.36;96733.16;1786896;80;21046;-67
2021/11/06 06:50:56;;;;;;;13.77;9.60;;;;;;;5.51;88.05;96737.68;1786898;80;21087;-67
2021/11/06 06:53:22;;;;;;;16.57;11.50;;;;;;;5.66;88.58;96739.71;1786964;80;21015;-68
2021/11/06 06:55:49;;;;;;;18.13;12.43;;;;;;;5.84;88.45;96729.56;1786952;80;21054;-68
2021/11/06 06:58:16;;;;;;;15.57;11.33;;;;;;;5.99;88.22;96732.92;1786968;80;21094;-68
2021/11/06 07:00:43;;;;;;;31.37;19.60;;;;;;;6.09;88.00;96737.89;1786749;80;21099;-68
2021/11/06 07:03:10;;;;;;;22.30;12.97;;;;;;;6.20;87.89;96738.98;1787171;80;21015;-68
2021/11/06 07:05:37;;;;;;;13.13;8.33;;;;;;;6.26;87.90;96743.43;1786856;80;21027;-68
2021/11/06 07:08:06;;;;;;;11.67;7.40;;;;;;;6.29;87.99;96743.04;1786951;80;20983;-68
2021/11/06 07:10:34;;;;;;;6.63;4.67;;;;;;;6.33;88.13;96735.25;1787239;80;21501;-68
2021/11/06 07:13:01;;;;;;;14.90;10.93;;;;;;;6.30;87.43;96732.16;1786662;80;21002;-68
2021/11/06 07:15:28;;;;;;;12.97;9.60;;;;;;;6.35;87.77;96729.17;1786728;80;21110;-68
2021/11/06 07:17:54;;;;;;;14.00;9.53;;;;;;;6.48;88.03;96736.80;1787082;80;21015;-67
2021/11/06 07:20:21;;;;;;;9.93;5.53;;;;;;;6.59;88.22;96747.02;1786818;80;21090;-67
2021/11/06 07:22:48;;;;;;;55.80;36.93;;;;;;;6.69;87.93;96744.10;1787103;80;21089;-67
2021/11/06 07:25:15;;;;;;;10.10;7.77;;;;;;;6.79;87.80;96735.95;1786806;80;21129;-67
2021/11/06 07:27:42;;;;;;;9.97;5.20;;;;;;;6.92;87.69;96730.87;1786964;80;20991;-67
2021/11/06 07:30:11;;;;;;;12.03;8.50;;;;;;;7.07;87.34;96734.14;1786708;80;20991;-67
2021/11/06 07:32:37;;;;;;;12.73;7.40;;;;;;;7.25;87.07;96727.38;1787216;80;21014;-67
2021/11/06 07:35:06;;;;;;;15.03;8.93;;;;;;;7.43;87.28;96728.89;1787061;80;21033;-67
2021/11/06 07:37:33;;;;;;;12.90;6.50;;;;;;;7.67;87.50;96724.37;1754099;80;21003;-67
2021/11/06 07:40:01;;;;;;;8.93;6.20;;;;;;;7.88;87.08;96727.64;1786782;80;21058;-67
2021/11/06 07:42:28;;;;;;;8.40;6.43;;;;;;;8.05;86.40;96729.57;1786717;80;21107;-67
2021/11/06 07:44:55;;;;;;;8.70;7.10;;;;;;;8.20;85.96;96724.45;1786736;80;21034;-68
2021/11/06 07:47:21;;;;;;;7.13;5.07;;;;;;;8.39;85.72;96718.52;1787003;80;21079;-68
2021/11/06 07:49:48;;;;;;;7.70;4.50;;;;;;;8.53;85.06;96719.92;1786702;80;21051;-67
2021/11/06 07:52:14;;;;;;;6.27;4.70;;;;;;;8.66;84.75;96714.31;1786796;80;21087;-68
2021/11/06 07:54:41;;;;;;;8.93;5.30;;;;;;;8.74;83.75;96711.73;1787085;80;21035;-68
2021/11/06 07:57:08;;;;;;;8.30;7.20;;;;;;;8.73;83.12;96718.75;1786724;80;21030;-67
2021/11/06 07:59:36;;;;;;;10.20;6.77;;;;;;;8.68;83.43;96709.07;1786672;80;21039;-67
2021/11/06 08:02:03;;;;;;;8.40;5.17;;;;;;;8.70;84.19;96701.63;1754209;80;21118;-67
2021/11/06 08:04:30;;;;;;;7.53;5.00;;;;;;;8.86;84.73;96711.37;1787069;80;21039;-67
2021/11/06 08:06:56;;;;;;;6.83;5.03;;;;;;;9.00;83.96;96714.09;1786768;80;21098;-67
2021/11/06 08:09:23;;;;;;;7.23;5.07;;;;;;;9.14;83.38;96714.16;1786987;80;21011;-68
2021/11/06 08:11:49;;;;;;;18.20;10.70;;;;;;;9.35;82.88;96725.24;1786645;80;21620;-68
2021/11/06 08:14:16;;;;;;;36.63;24.37;;;;;;;9.47;81.50;96729.22;1786880;80;21117;-68
2021/11/06 08:16:49;;;;;;;14.97;9.40;;;;;;;9.60;82.23;96725.31;1754047;80;21034;-67
2021/11/06 08:19:14;;;;;;;9.43;7.50;;;;;;;9.82;81.94;96728.90;1786999;80;21034;-67
2021/11/06 08:21:41;;;;;;;8.08;6.25;;;;;;;9.94;80.69;96724.98;1786756;80;21082;-67
2021/11/06 08:24:08;;;;;;;8.45;5.70;;;;;;;10.07;81.14;96724.11;1787000;80;21019;-67
2021/11/06 08:26:34;;;;;;;6.97;5.65;;;;;;;10.14;80.54;96728.52;1786693;80;21102;-67
2021/11/06 08:29:01;;;;;;;7.35;5.10;;;;;;;10.20;78.44;96726.33;1787064;80;20982;-67
2021/11/06 08:31:27;;;;;;;9.60;6.10;;;;;;;10.17;78.05;96728.97;1786633;80;21091;-68
2021/11/06 08:33:54;;;;;;;8.20;6.15;;;;;;;10.19;78.98;96735.12;1786959;80;21504;-67
2021/11/06 08:36:21;;;;;;;5.45;4.60;;;;;;;10.29;79.01;96742.20;1786800;80;21010;-67
2021/11/06 08:38:47;;;;;;;7.65;5.90;;;;;;;10.33;77.37;96730.79;1786952;80;21101;-67
2021/11/06 08:41:14;;;;;;;8.53;5.87;;;;;;;10.48;76.81;96735.61;1786772;80;21022;-67
2021/11/06 08:43:40;;;;;;;8.25;6.40;;;;;;;10.59;77.79;96742.66;1786903;80;21015;-67
2021/11/06 08:46:08;;;;;;;9.18;5.67;;;;;;;10.69;76.33;96742.22;1786561;80;21066;-67
2021/11/06 08:48:35;;;;;;;8.18;5.35;;;;;;;10.80;76.08;96744.84;1786762;80;21094;-67
2021/11/06 08:51:03;;;;;;;9.73;5.80;;;;;;;11.02;76.83;96750.98;1786656;80;21134;-67
2021/11/06 08:53:30;;;;;;;6.97;5.30;;;;;;;11.22;75.41;96753.13;1786988;80;21030;-68
2021/11/06 08:55:57;;;;;;;5.60;4.45;;;;;;;11.20;72.26;96754.89;1787071;80;21126;-67
2021/11/06 08:58:23;;;;;;;7.62;5.30;;;;;;;11.17;72.28;96749.62;1786635;80;21087;-67
2021/11/06 09:00:52;;;;;;;7.47;4.65;;;;;;;11.10;71.14;96745.67;1786713;80;21503;-67
2021/11/06 09:03:23;;;;;;;4.37;3.52;;;;;;;11.02;72.30;96740.41;1787079;80;21061;-68
2021/11/06 09:05:52;;;;;;;24.75;12.23;;;;;;;10.97;71.80;96742.19;1787234;80;21010;-67
2021/11/06 09:08:27;;;;;;;10.00;6.75;;;;;;;10.92;72.23;96750.11;1787061;80;21003;-67
2021/11/06 09:10:59;;;;;;;6.42;4.00;;;;;;;10.89;72.36;96758.48;1787056;80;21058;-67
2021/11/06 09:13:26;;;;;;;3.83;2.52;;;;;;;10.89;73.01;96765.09;1786650;80;21046;-67
2021/11/06 09:15:53;;;;;;;7.47;2.58;;;;;;;10.93;72.41;96761.54;1753527;80;21093;-67
2021/11/06 09:18:20;;;;;;;2.35;1.85;;;;;;;10.84;70.61;96755.84;1786963;80;21532;-67
2021/11/06 09:20:46;;;;;;;3.60;2.33;;;;;;;10.76;71.09;96758.49;1786692;80;21079;-67
2021/11/06 09:23:14;;;;;;;2.50;1.90;;;;;;;10.69;73.34;96767.29;1787185;80;20987;-67
2021/11/06 09:25:41;;;;;;;4.60;2.47;;;;;;;10.58;73.93;96767.30;1786757;80;21087;-67
2021/11/06 09:28:07;;;;;;;3.15;2.08;;;;;;;10.52;74.38;96771.23;1786758;80;21508;-67
2021/11/06 09:30:34;;;;;;;3.52;2.47;;;;;;;10.52;75.19;96772.56;1786509;80;21107;-67
2021/11/06 09:33:01;;;;;;;6.33;3.90;;;;;;;10.53;76.41;96783.58;1786829;80;21014;-67
2021/11/06 09:35:27;;;;;;;5.62;4.33;;;;;;;10.49;76.54;96783.12;1786485;80;21132;-67
2021/11/06 09:37:54;;;;;;;9.88;5.42;;;;;;;10.50;75.13;96779.59;1786898;80;21030;-67
2021/11/06 09:40:21;;;;;;;5.87;4.42;;;;;;;10.52;74.10;96780.47;1787121;80;21070;-67
2021/11/06 09:42:48;;;;;;;4.65;3.70;;;;;;;10.59;74.51;96784.01;1787110;80;21042;-67
2021/11/06 09:45:15;;;;;;;4.62;3.65;;;;;;;10.63;74.96;96783.11;1787110;80;20947;-67
2021/11/06 09:47:44;;;;;;;10.58;7.83;;;;;;;10.60;75.74;96771.23;1787175;80;21070;-67
2021/11/06 09:50:15;;;;;;;6.00;4.60;;;;;;;10.67;75.28;96772.13;1787083;80;21507;-67
2021/11/06 09:52:42;;;;;;;7.28;4.65;;;;;;;10.74;75.63;96762.02;1787289;80;21043;-67
2021/11/06 09:55:10;;;;;;;10.30;7.55;;;;;;;10.86;75.07;96762.02;1786881;80;21102;-67
2021/11/06 09:57:37;;;;;;;3.92;2.98;;;;;;;11.07;74.38;96765.05;1786667;80;21018;-67
2021/11/06 10:00:08;;;;;;;4.03;2.50;;;;;;;11.41;72.55;96760.99;1787095;80;20983;-68
2021/11/06 10:02:36;;;;;;;4.03;2.02;;;;;;;11.95;74.38;96764.79;1786702;80;21018;-68
2021/11/06 10:05:05;;;;;;;4.08;2.33;;;;;;;12.33;69.72;96773.36;1787426;80;20983;-68
2021/11/06 10:07:32;;;;;;;5.20;3.02;;;;;;;12.40;70.39;96763.63;1787374;80;21511;-68
2021/11/06 10:10:15;;;;;;;3.58;2.65;;;;;;;12.38;69.75;96771.14;1787037;80;21440;-68
2021/11/06 10:12:50;;;;;;;1.37;1.10;;;;;;;12.34;69.50;96776.88;1787602;80;21449;-68
2021/11/06 10:15:20;;;;;;;2.45;1.10;;;;;;;12.46;66.82;96777.25;1787146;80;21014;-68
2021/11/06 10:17:48;;;;;;;4.85;3.25;;;;;;;12.68;67.57;96767.39;1786969;80;21071;-68
2021/11/06 10:20:32;;;;;;;3.87;1.90;;;;;;;12.94;67.78;96756.56;1787090;80;21007;-68
2021/11/06 10:23:03;;;;;;;2.37;1.95;;;;;;;13.02;64.67;96758.68;1787150;80;21102;-68
2021/11/06 10:25:30;;;;;;;2.62;2.10;;;;;;;12.95;63.51;96764.51;1787111;80;21030;-68
2021/11/06 10:28:01;;;;;;;2.37;1.60;;;;;;;12.80;63.09;96761.09;1786991;80;21497;-67
2021/11/06 10:30:33;;;;;;;3.87;1.22;;;;;;;12.76;63.73;96753.63;1787196;80;21031;-67
2021/11/06 10:33:16;;;;;;;1.27;1.17;;;;;;;12.69;64.20;96751.47;1787203;80;21087;-68
2021/11/06 10:35:49;;;;;;;3.33;1.30;;;;;;;12.55;65.12;96752.92;1787442;80;20986;-68
2021/11/06 10:38:28;;;;;;;2.72;1.20;;;;;;;12.50;65.04;96754.73;1787469;80;21211;-68
2021/11/06 10:40:59;;;;;;;2.05;1.30;;;;;;;12.46;65.84;96745.04;1787158;80;21483;-67
2021/11/06 10:43:31;;;;;;;2.85;1.60;;;;;;;12.51;65.64;96755.59;1786990;80;21079;-68
2021/11/06 10:46:00;;;;;;;2.58;1.37;;;;;;;12.46;64.89;96749.46;1786918;80;20999;-68
2021/11/06 10:48:32;;;;;;;3.22;1.40;;;;;;;12.51;66.37;96756.47;1786912;80;21480;-68
2021/11/06 10:51:09;;;;;;;2.83;1.60;;;;;;;12.55;65.98;96755.57;1792238;80;21002;-68
2021/11/06 10:53:54;;;;;;;1.70;1.50;;;;;;;12.42;63.46;96745.06;1795389;80;21066;-67
2021/11/06 10:56:30;;;;;;;2.62;1.62;;;;;;;12.38;65.24;96746.87;1795186;80;20970;-68
2021/11/06 10:59:09;;;;;;;2.37;1.40;;;;;;;12.27;65.45;96749.60;1794637;80;21082;-67
2021/11/06 11:01:41;;;;;;;3.42;1.70;;;;;;;12.25;66.37;96757.98;1794827;80;21485;-67
2021/11/06 11:04:13;;;;;;;2.33;1.57;;;;;;;12.39;65.97;96748.61;1795609;80;21051;-68
2021/11/06 11:06:53;;;;;;;5.50;2.60;;;;;;;12.70;64.66;96740.42;1795547;80;21034;-68
2021/11/06 11:09:30;;;;;;;2.47;2.27;;;;;;;13.14;63.92;96728.09;1795208;80;21031;-68
2021/11/06 11:12:00;;;;;;;3.00;2.08;;;;;;;13.71;62.90;96726.16;1794914;80;20998;-68
2021/11/06 11:14:30;;;;;;;4.90;2.40;;;;;;;14.40;60.00;96718.98;1795240;80;21011;-68
2021/11/06 11:17:05;;;;;;;4.30;2.27;;;;;;;14.92;57.56;96716.37;1795466;80;21041;-68
2021/11/06 11:19:40;;;;;;;4.78;3.47;;;;;;;15.47;56.53;96719.78;1795563;80;20979;-68
2021/11/06 11:22:23;;;;;;;2.17;1.87;;;;;;;15.55;53.65;96713.84;1795171;80;21475;-68
2021/11/06 11:24:51;;;;;;;2.92;2.20;;;;;;;15.70;52.63;96706.47;1795692;80;21066;-68
2021/11/06 11:27:17;;;;;;;1.98;1.77;;;;;;;15.69;52.48;96708.27;1795358;80;21053;-68
2021/11/06 11:29:45;;;;;;;2.00;1.75;;;;;;;15.52;51.56;96711.69;1794954;80;21082;-68
2021/11/06 11:32:14;;;;;;;5.62;2.77;;;;;;;15.48;51.44;96704.70;1795127;80;21015;-68
2021/11/06 11:34:45;;;;;;;3.08;1.72;;;;;;;15.58;53.77;96701.81;1795365;80;21049;-68
2021/11/06 11:37:14;;;;;;;6.53;2.98;;;;;;;15.62;52.95;96699.08;1795496;80;20991;-68
2021/11/06 11:39:42;;;;;;;13.05;6.70;;;;;;;15.91;51.63;96704.70;1795545;80;21102;-68
2021/11/06 11:42:38;;;;;;;4.45;1.95;;;;;;;15.94;52.03;96699.76;1795460;80;21010;-68